sensor_id;sensor_type;location;lat;lon;timestamp;pressure;altitude;pressure_sealevel;temperature;humidity
11936;BME280;6027;48.576;9.180;2023-05-23T00:01:35;96724.09;;;15.92;100.00
11936;BME280;6027;48.576;9.180;2023-05-23T00:04:05;96732.34;;;15.90;100.00
11936;BME280;6027;48.576;9.180;2023-05-23T00:06:31;96738.72;;;15.89;100.00
11936;BME280;6027;48.576;9.180;2023-05-23T00:08:56;96737.47;;;15.92;100.00
11936;BME280;6027;48.576;9.180;2023-05-23T00:11:22;96735.38;;;15.94;100.00
11936;BME280;6027;48.576;9.180;2023-05-23T00:13:52;96736.00;;;15.96;100.00
11936;BME280;6027;48.576;9.180;2023-05-23T00:16:17;96741.69;;;15.99;100.00
11936;BME280;6027;48.576;9.180;2023-05-23T00:18:43;96749.09;;;15.97;100.00
11936;BME280;6027;48.576;9.180;2023-05-23T00:21:10;96749.25;;;16.02;100.00
11936;BME280;6027;48.576;9.180;2023-05-23T00:23:38;96754.22;;;15.99;100.00
11936;BME280;6027;48.576;9.180;2023-05-23T00:26:07;96750.81;;;15.92;100.00
11936;BME280;6027;48.576;9.180;2023-05-23T00:28:32;96751.88;;;15.84;100.00
11936;BME280;6027;48.576;9.180;2023-05-23T00:30:58;96741.00;;;15.85;100.00
11936;BME280;6027;48.576;9.180;2023-05-23T00:33:23;96746.75;;;15.82;100.00
11936;BME280;6027;48.576;9.180;2023-05-23T00:35:48;96752.94;;;15.83;100.00
11936;BME280;6027;48.576;9.180;2023-05-23T00:38:14;96743.06;;;15.83;100.00
11936;BME280;6027;48.576;9.180;2023-05-23T00:40:40;96754.25;;;15.74;100.00
11936;BME280;6027;48.576;9.180;2023-05-23T00:43:05;96750.75;;;15.73;100.00
11936;BME280;6027;48.576;9.180;2023-05-23T00:45:32;96748.63;;;15.57;100.00
11936;BME280;6027;48.576;9.180;2023-05-23T00:47:58;96746.88;;;15.69;100.00
11936;BME280;6027;48.576;9.180;2023-05-23T00:50:24;96746.66;;;15.71;100.00
11936;BME280;6027;48.576;9.180;2023-05-23T00:52:54;96740.34;;;15.65;100.00
11936;BME280;6027;48.576;9.180;2023-05-23T00:55:19;96741.13;;;15.72;100.00
11936;BME280;6027;48.576;9.180;2023-05-23T00:57:45;96746.28;;;15.67;100.00
11936;BME280;6027;48.576;9.180;2023-05-23T01:00:11;96744.66;;;15.66;100.00
11936;BME280;6027;48.576;9.180;2023-05-23T01:02:46;96746.09;;;15.62;100.00
11936;BME280;6027;48.576;9.180;2023-05-23T01:05:16;96748.13;;;15.67;100.00
11936;BME280;6027;48.576;9.180;2023-05-23T01:07:45;96759.19;;;15.70;100.00
11936;BME280;6027;48.576;9.180;2023-05-23T01:10:15;96754.69;;;15.71;100.00
11936;BME280;6027;48.576;9.180;2023-05-23T01:15:27;96765.78;;;15.68;100.00
11936;BME280;6027;48.576;9.180;2023-05-23T01:17:59;96752.44;;;15.68;100.00
11936;BME280;6027;48.576;9.180;2023-05-23T01:20:30;96756.56;;;15.64;100.00
11936;BME280;6027;48.576;9.180;2023-05-23T01:28:19;96754.50;;;15.34;100.00
11936;BME280;6027;48.576;9.180;2023-05-23T01:30:47;96750.00;;;15.28;100.00
11936;BME280;6027;48.576;9.180;2023-05-23T01:33:15;96743.81;;;15.34;100.00
11936;BME280;6027;48.576;9.180;2023-05-23T01:35:42;96751.75;;;15.09;100.00
11936;BME280;6027;48.576;9.180;2023-05-23T01:38:08;96750.44;;;15.25;100.00
11936;BME280;6027;48.576;9.180;2023-05-23T01:40:34;96748.59;;;15.26;100.00
11936;BME280;6027;48.576;9.180;2023-05-23T01:43:00;96748.16;;;15.29;100.00
11936;BME280;6027;48.576;9.180;2023-05-23T01:45:27;96755.13;;;15.30;100.00
11936;BME280;6027;48.576;9.180;2023-05-23T01:47:53;96751.75;;;15.41;100.00
11936;BME280;6027;48.576;9.180;2023-05-23T01:50:21;96753.19;;;15.43;100.00
11936;BME280;6027;48.576;9.180;2023-05-23T01:52:47;96747.72;;;15.32;100.00
11936;BME280;6027;48.576;9.180;2023-05-23T01:55:15;96756.16;;;15.29;100.00
11936;BME280;6027;48.576;9.180;2023-05-23T01:57:43;96754.94;;;15.25;100.00
11936;BME280;6027;48.576;9.180;2023-05-23T02:00:12;96749.59;;;15.25;100.00
11936;BME280;6027;48.576;9.180;2023-05-23T02:02:39;96757.78;;;15.30;100.00
11936;BME280;6027;48.576;9.180;2023-05-23T02:05:05;96763.91;;;15.37;100.00
11936;BME280;6027;48.576;9.180;2023-05-23T02:07:31;96752.63;;;15.35;100.00
11936;BME280;6027;48.576;9.180;2023-05-23T02:09:56;96764.25;;;15.47;100.00
11936;BME280;6027;48.576;9.180;2023-05-23T02:12:21;96757.88;;;15.48;100.00
11936;BME280;6027;48.576;9.180;2023-05-23T02:14:48;96764.66;;;15.50;100.00
11936;BME280;6027;48.576;9.180;2023-05-23T02:17:14;96760.34;;;15.49;100.00
11936;BME280;6027;48.576;9.180;2023-05-23T02:19:40;96756.84;;;15.49;100.00
11936;BME280;6027;48.576;9.180;2023-05-23T02:22:06;96769.59;;;15.47;100.00
11936;BME280;6027;48.576;9.180;2023-05-23T02:24:31;96761.16;;;15.50;100.00
11936;BME280;6027;48.576;9.180;2023-05-23T02:26:57;96766.69;;;15.48;100.00
11936;BME280;6027;48.576;9.180;2023-05-23T02:29:22;96761.78;;;15.45;100.00
11936;BME280;6027;48.576;9.180;2023-05-23T02:31:47;96766.31;;;15.45;100.00
11936;BME280;6027;48.576;9.180;2023-05-23T02:34:13;96752.38;;;15.43;100.00
11936;BME280;6027;48.576;9.180;2023-05-23T02:36:38;96762.63;;;15.46;100.00
11936;BME280;6027;48.576;9.180;2023-05-23T02:39:04;96766.53;;;15.43;100.00
11936;BME280;6027;48.576;9.180;2023-05-23T02:41:31;96760.78;;;15.40;100.00
11936;BME280;6027;48.576;9.180;2023-05-23T02:43:57;96772.91;;;15.42;100.00
11936;BME280;6027;48.576;9.180;2023-05-23T02:46:22;96765.34;;;15.39;100.00
11936;BME280;6027;48.576;9.180;2023-05-23T02:48:48;96763.34;;;15.28;100.00
11936;BME280;6027;48.576;9.180;2023-05-23T02:51:13;96750.22;;;15.27;100.00
11936;BME280;6027;48.576;9.180;2023-05-23T02:53:39;96761.06;;;15.32;100.00
11936;BME280;6027;48.576;9.180;2023-05-23T02:56:05;96759.00;;;15.34;100.00
11936;BME280;6027;48.576;9.180;2023-05-23T02:58:33;96762.50;;;15.34;100.00
11936;BME280;6027;48.576;9.180;2023-05-23T03:01:03;96749.06;;;15.16;100.00
11936;BME280;6027;48.576;9.180;2023-05-23T03:03:29;96750.38;;;15.00;100.00
11936;BME280;6027;48.576;9.180;2023-05-23T03:06:04;96756.47;;;15.07;100.00
11936;BME280;6027;48.576;9.180;2023-05-23T03:08:30;96761.16;;;15.18;100.00
11936;BME280;6027;48.576;9.180;2023-05-23T03:10:56;96755.22;;;15.16;100.00
11936;BME280;6027;48.576;9.180;2023-05-23T03:13:21;96754.41;;;15.16;100.00
11936;BME280;6027;48.576;9.180;2023-05-23T03:15:47;96766.66;;;15.24;100.00
11936;BME280;6027;48.576;9.180;2023-05-23T03:18:12;96765.22;;;15.21;100.00
11936;BME280;6027;48.576;9.180;2023-05-23T03:20:37;96766.69;;;15.17;100.00
11936;BME280;6027;48.576;9.180;2023-05-23T03:23:03;96769.38;;;15.17;100.00
11936;BME280;6027;48.576;9.180;2023-05-23T03:25:28;96768.13;;;15.19;100.00
11936;BME280;6027;48.576;9.180;2023-05-23T03:27:54;96766.50;;;15.18;100.00
11936;BME280;6027;48.576;9.180;2023-05-23T03:30:20;96768.56;;;15.16;100.00
11936;BME280;6027;48.576;9.180;2023-05-23T03:32:45;96770.59;;;15.14;100.00
11936;BME280;6027;48.576;9.180;2023-05-23T03:35:11;96774.28;;;15.20;100.00
11936;BME280;6027;48.576;9.180;2023-05-23T03:37:36;96777.53;;;15.22;100.00
11936;BME280;6027;48.576;9.180;2023-05-23T03:40:02;96783.34;;;15.12;100.00
11936;BME280;6027;48.576;9.180;2023-05-23T03:42:28;96779.81;;;15.18;100.00
11936;BME280;6027;48.576;9.180;2023-05-23T03:44:54;96780.81;;;15.24;100.00
11936;BME280;6027;48.576;9.180;2023-05-23T03:47:19;96789.47;;;15.19;100.00
11936;BME280;6027;48.576;9.180;2023-05-23T03:49:45;96790.28;;;15.20;100.00
11936;BME280;6027;48.576;9.180;2023-05-23T03:52:10;96790.91;;;15.15;100.00
11936;BME280;6027;48.576;9.180;2023-05-23T03:54:36;96795.38;;;15.21;100.00
11936;BME280;6027;48.576;9.180;2023-05-23T03:57:02;96784.72;;;15.21;100.00
11936;BME280;6027;48.576;9.180;2023-05-23T03:59:28;96788.78;;;15.31;100.00
11936;BME280;6027;48.576;9.180;2023-05-23T04:01:53;96778.31;;;15.29;100.00
11936;BME280;6027;48.576;9.180;2023-05-23T04:04:19;96785.91;;;15.32;100.00
11936;BME280;6027;48.576;9.180;2023-05-23T04:06:45;96784.88;;;15.33;100.00
11936;BME280;6027;48.576;9.180;2023-05-23T04:09:12;96779.75;;;15.32;100.00
11936;BME280;6027;48.576;9.180;2023-05-23T04:11:38;96781.56;;;15.38;100.00
11936;BME280;6027;48.576;9.180;2023-05-23T04:14:04;96782.00;;;15.35;100.00
11936;BME280;6027;48.576;9.180;2023-05-23T04:16:29;96781.56;;;15.38;100.00
11936;BME280;6027;48.576;9.180;2023-05-23T04:18:57;96779.03;;;15.43;100.00
11936;BME280;6027;48.576;9.180;2023-05-23T04:21:23;96776.97;;;15.45;100.00
11936;BME280;6027;48.576;9.180;2023-05-23T04:23:48;96776.97;;;15.45;100.00
11936;BME280;6027;48.576;9.180;2023-05-23T04:26:14;96780.88;;;15.49;100.00
11936;BME280;6027;48.576;9.180;2023-05-23T04:28:39;96782.94;;;15.47;100.00
11936;BME280;6027;48.576;9.180;2023-05-23T04:31:05;96776.13;;;15.51;100.00
11936;BME280;6027;48.576;9.180;2023-05-23T04:33:30;96776.28;;;15.63;100.00
11936;BME280;6027;48.576;9.180;2023-05-23T04:35:55;96785.28;;;15.68;100.00
11936;BME280;6027;48.576;9.180;2023-05-23T04:38:21;96782.00;;;15.66;100.00
11936;BME280;6027;48.576;9.180;2023-05-23T04:40:49;96785.06;;;15.70;100.00
11936;BME280;6027;48.576;9.180;2023-05-23T04:43:17;96788.72;;;15.75;100.00
11936;BME280;6027;48.576;9.180;2023-05-23T04:45:44;96786.06;;;15.75;100.00
11936;BME280;6027;48.576;9.180;2023-05-23T04:48:10;96788.88;;;15.80;100.00
11936;BME280;6027;48.576;9.180;2023-05-23T04:50:38;96785.78;;;15.83;100.00
11936;BME280;6027;48.576;9.180;2023-05-23T04:53:05;96796.03;;;15.86;100.00
11936;BME280;6027;48.576;9.180;2023-05-23T04:55:30;96793.75;;;15.90;100.00
11936;BME280;6027;48.576;9.180;2023-05-23T04:57:56;96804.22;;;15.92;100.00
11936;BME280;6027;48.576;9.180;2023-05-23T05:00:22;96800.81;;;16.03;100.00
11936;BME280;6027;48.576;9.180;2023-05-23T05:02:47;96809.13;;;15.95;100.00
11936;BME280;6027;48.576;9.180;2023-05-23T05:05:13;96802.47;;;16.04;100.00
11936;BME280;6027;48.576;9.180;2023-05-23T05:07:38;96811.06;;;16.06;100.00
11936;BME280;6027;48.576;9.180;2023-05-23T05:10:05;96804.91;;;16.05;100.00
11936;BME280;6027;48.576;9.180;2023-05-23T05:12:30;96809.59;;;16.10;100.00
11936;BME280;6027;48.576;9.180;2023-05-23T05:14:56;96807.53;;;16.12;100.00
11936;BME280;6027;48.576;9.180;2023-05-23T05:17:26;96814.66;;;16.18;100.00
11936;BME280;6027;48.576;9.180;2023-05-23T05:19:54;96817.31;;;16.18;100.00
11936;BME280;6027;48.576;9.180;2023-05-23T05:22:19;96816.69;;;16.22;100.00
11936;BME280;6027;48.576;9.180;2023-05-23T05:24:45;96817.50;;;16.23;100.00
11936;BME280;6027;48.576;9.180;2023-05-23T05:27:10;96820.56;;;16.27;100.00
11936;BME280;6027;48.576;9.180;2023-05-23T05:29:36;96818.28;;;16.30;100.00
11936;BME280;6027;48.576;9.180;2023-05-23T05:32:02;96814.94;;;16.35;100.00
11936;BME280;6027;48.576;9.180;2023-05-23T05:34:28;96821.53;;;16.32;100.00
11936;BME280;6027;48.576;9.180;2023-05-23T05:36:53;96818.19;;;16.37;100.00
11936;BME280;6027;48.576;9.180;2023-05-23T05:39:22;96823.19;;;16.33;100.00
11936;BME280;6027;48.576;9.180;2023-05-23T05:41:48;96830.28;;;16.39;100.00
11936;BME280;6027;48.576;9.180;2023-05-23T05:44:13;96829.63;;;16.44;100.00
11936;BME280;6027;48.576;9.180;2023-05-23T05:46:39;96825.13;;;16.44;100.00
11936;BME280;6027;48.576;9.180;2023-05-23T05:49:04;96833.13;;;16.44;100.00
11936;BME280;6027;48.576;9.180;2023-05-23T05:51:30;96835.38;;;16.47;100.00
11936;BME280;6027;48.576;9.180;2023-05-23T05:53:56;96841.47;;;16.54;100.00
11936;BME280;6027;48.576;9.180;2023-05-23T05:56:21;96837.38;;;16.52;100.00
11936;BME280;6027;48.576;9.180;2023-05-23T05:58:47;96839.97;;;16.58;100.00
11936;BME280;6027;48.576;9.180;2023-05-23T06:01:12;96829.88;;;16.61;100.00
11936;BME280;6027;48.576;9.180;2023-05-23T06:03:38;96823.31;;;16.63;100.00
11936;BME280;6027;48.576;9.180;2023-05-23T06:06:04;96831.34;;;16.56;100.00
11936;BME280;6027;48.576;9.180;2023-05-23T06:08:30;96827.81;;;16.63;100.00
11936;BME280;6027;48.576;9.180;2023-05-23T06:10:56;96831.13;;;16.65;100.00
11936;BME280;6027;48.576;9.180;2023-05-23T06:13:21;96844.28;;;16.59;100.00
11936;BME280;6027;48.576;9.180;2023-05-23T06:15:47;96834.38;;;16.67;100.00
11936;BME280;6027;48.576;9.180;2023-05-23T06:18:13;96850.22;;;16.62;100.00
11936;BME280;6027;48.576;9.180;2023-05-23T06:20:38;96831.13;;;16.65;100.00
11936;BME280;6027;48.576;9.180;2023-05-23T06:23:03;96833.34;;;16.68;100.00
11936;BME280;6027;48.576;9.180;2023-05-23T06:25:30;96845.09;;;16.67;100.00
11936;BME280;6027;48.576;9.180;2023-05-23T06:27:55;96844.66;;;16.70;100.00
11936;BME280;6027;48.576;9.180;2023-05-23T06:30:21;96842.34;;;16.73;100.00
11936;BME280;6027;48.576;9.180;2023-05-23T06:32:47;96848.34;;;16.69;100.00
11936;BME280;6027;48.576;9.180;2023-05-23T06:35:12;96854.13;;;16.66;100.00
11936;BME280;6027;48.576;9.180;2023-05-23T06:37:38;96851.75;;;16.76;100.00
11936;BME280;6027;48.576;9.180;2023-05-23T06:40:07;96863.06;;;16.78;100.00
11936;BME280;6027;48.576;9.180;2023-05-23T06:42:33;96859.22;;;16.74;100.00
11936;BME280;6027;48.576;9.180;2023-05-23T06:44:59;96858.03;;;16.88;100.00
11936;BME280;6027;48.576;9.180;2023-05-23T06:47:24;96853.72;;;16.87;100.00
11936;BME280;6027;48.576;9.180;2023-05-23T06:49:49;96848.88;;;16.77;100.00
11936;BME280;6027;48.576;9.180;2023-05-23T06:52:15;96854.16;;;16.84;100.00
11936;BME280;6027;48.576;9.180;2023-05-23T06:54:40;96864.41;;;16.87;100.00
11936;BME280;6027;48.576;9.180;2023-05-23T06:57:06;96864.09;;;16.95;100.00
11936;BME280;6027;48.576;9.180;2023-05-23T06:59:31;96864.41;;;17.05;100.00
11936;BME280;6027;48.576;9.180;2023-05-23T07:01:57;96879.88;;;17.03;100.00
11936;BME280;6027;48.576;9.180;2023-05-23T07:04:22;96872.88;;;17.02;100.00
11936;BME280;6027;48.576;9.180;2023-05-23T07:06:47;96872.44;;;17.05;100.00
11936;BME280;6027;48.576;9.180;2023-05-23T07:09:13;96878.75;;;17.11;100.00
11936;BME280;6027;48.576;9.180;2023-05-23T07:11:38;96873.75;;;17.14;100.00
11936;BME280;6027;48.576;9.180;2023-05-23T07:14:05;96888.66;;;17.10;100.00
11936;BME280;6027;48.576;9.180;2023-05-23T07:16:32;96888.66;;;17.10;100.00
11936;BME280;6027;48.576;9.180;2023-05-23T07:18:57;96879.09;;;17.14;100.00
11936;BME280;6027;48.576;9.180;2023-05-23T07:21:22;96882.09;;;17.06;100.00
11936;BME280;6027;48.576;9.180;2023-05-23T07:23:48;96891.53;;;17.09;100.00
11936;BME280;6027;48.576;9.180;2023-05-23T07:26:13;96886.63;;;17.06;100.00
11936;BME280;6027;48.576;9.180;2023-05-23T07:28:39;96887.81;;;17.10;100.00
11936;BME280;6027;48.576;9.180;2023-05-23T07:31:04;96897.63;;;16.98;100.00
11936;BME280;6027;48.576;9.180;2023-05-23T07:33:32;96899.84;;;17.01;100.00
11936;BME280;6027;48.576;9.180;2023-05-23T07:35:58;96889.97;;;17.01;100.00
11936;BME280;6027;48.576;9.180;2023-05-23T07:38:25;96900.66;;;17.01;100.00
11936;BME280;6027;48.576;9.180;2023-05-23T07:40:51;96905.63;;;16.98;100.00
11936;BME280;6027;48.576;9.180;2023-05-23T07:43:16;96906.25;;;17.00;100.00
11936;BME280;6027;48.576;9.180;2023-05-23T07:45:41;96910.53;;;17.01;100.00
11936;BME280;6027;48.576;9.180;2023-05-23T07:48:07;96905.13;;;17.07;100.00
11936;BME280;6027;48.576;9.180;2023-05-23T07:50:33;96902.59;;;16.94;100.00
11936;BME280;6027;48.576;9.180;2023-05-23T07:52:58;96900.06;;;16.99;100.00
11936;BME280;6027;48.576;9.180;2023-05-23T07:55:24;96907.94;;;16.94;100.00
11936;BME280;6027;48.576;9.180;2023-05-23T07:57:49;96907.19;;;16.87;100.00
11936;BME280;6027;48.576;9.180;2023-05-23T08:00:17;96906.59;;;16.60;100.00
11936;BME280;6027;48.576;9.180;2023-05-23T08:02:42;96916.03;;;16.63;100.00
11936;BME280;6027;48.576;9.180;2023-05-23T08:05:08;96904.50;;;16.62;100.00
11936;BME280;6027;48.576;9.180;2023-05-23T08:07:33;96909.09;;;16.55;100.00
11936;BME280;6027;48.576;9.180;2023-05-23T08:12:26;96912.47;;;16.44;100.00
11936;BME280;6027;48.576;9.180;2023-05-23T08:14:52;96910.13;;;16.29;100.00
11936;BME280;6027;48.576;9.180;2023-05-23T08:17:17;96923.28;;;16.31;100.00
11936;BME280;6027;48.576;9.180;2023-05-23T08:19:43;96921.44;;;16.31;100.00
11936;BME280;6027;48.576;9.180;2023-05-23T08:22:09;96917.16;;;16.23;100.00
11936;BME280;6027;48.576;9.180;2023-05-23T08:24:34;96924.13;;;16.24;100.00
11936;BME280;6027;48.576;9.180;2023-05-23T08:27:00;96918.41;;;16.21;100.00
11936;BME280;6027;48.576;9.180;2023-05-23T08:29:25;96928.44;;;16.26;100.00
11936;BME280;6027;48.576;9.180;2023-05-23T08:31:50;96928.72;;;16.42;100.00
11936;BME280;6027;48.576;9.180;2023-05-23T08:34:16;96928.31;;;16.45;100.00
11936;BME280;6027;48.576;9.180;2023-05-23T08:36:41;96933.53;;;16.58;100.00
11936;BME280;6027;48.576;9.180;2023-05-23T08:39:07;96934.94;;;16.61;100.00
11936;BME280;6027;48.576;9.180;2023-05-23T08:41:33;96934.78;;;16.56;100.00
11936;BME280;6027;48.576;9.180;2023-05-23T08:43:59;96933.75;;;16.57;100.00
11936;BME280;6027;48.576;9.180;2023-05-23T08:46:25;96944.59;;;16.69;100.00
11936;BME280;6027;48.576;9.180;2023-05-23T08:48:53;96946.03;;;16.71;100.00
11936;BME280;6027;48.576;9.180;2023-05-23T08:51:24;96953.56;;;16.74;100.00
11936;BME280;6027;48.576;9.180;2023-05-23T08:53:50;96955.91;;;16.71;100.00
11936;BME280;6027;48.576;9.180;2023-05-23T08:56:18;96954.31;;;16.56;100.00
11936;BME280;6027;48.576;9.180;2023-05-23T08:58:44;96961.91;;;16.59;100.00
11936;BME280;6027;48.576;9.180;2023-05-23T09:01:12;96965.00;;;16.56;100.00
11936;BME280;6027;48.576;9.180;2023-05-23T09:03:39;96967.47;;;16.58;100.00
11936;BME280;6027;48.576;9.180;2023-05-23T09:06:08;96973.25;;;16.55;100.00
11936;BME280;6027;48.576;9.180;2023-05-23T09:08:34;96971.84;;;16.52;100.00
11936;BME280;6027;48.576;9.180;2023-05-23T09:11:01;96964.44;;;16.54;100.00
11936;BME280;6027;48.576;9.180;2023-05-23T09:13:31;96979.19;;;16.57;100.00
11936;BME280;6027;48.576;9.180;2023-05-23T09:16:05;96976.72;;;16.55;100.00
11936;BME280;6027;48.576;9.180;2023-05-23T09:18:39;96975.47;;;16.58;100.00
11936;BME280;6027;48.576;9.180;2023-05-23T09:21:07;96974.00;;;16.62;100.00
11936;BME280;6027;48.576;9.180;2023-05-23T09:23:34;96982.06;;;16.55;100.00
11936;BME280;6027;48.576;9.180;2023-05-23T09:26:07;96982.06;;;16.55;100.00
11936;BME280;6027;48.576;9.180;2023-05-23T09:28:33;96982.69;;;16.57;100.00
11936;BME280;6027;48.576;9.180;2023-05-23T09:31:00;96981.44;;;16.60;100.00
11936;BME280;6027;48.576;9.180;2023-05-23T09:33:35;96981.59;;;16.72;100.00
11936;BME280;6027;48.576;9.180;2023-05-23T09:36:03;96976.59;;;16.75;100.00
11936;BME280;6027;48.576;9.180;2023-05-23T09:38:29;96983.81;;;16.75;100.00
11936;BME280;6027;48.576;9.180;2023-05-23T09:40:55;96990.16;;;16.80;100.00
11936;BME280;6027;48.576;9.180;2023-05-23T09:43:22;96992.00;;;16.80;100.00
11936;BME280;6027;48.576;9.180;2023-05-23T09:45:47;96990.75;;;16.82;100.00
11936;BME280;6027;48.576;9.180;2023-05-23T09:48:13;96987.09;;;16.77;100.00
11936;BME280;6027;48.576;9.180;2023-05-23T09:50:38;96993.94;;;16.73;100.00
11936;BME280;6027;48.576;9.180;2023-05-23T09:53:03;96998.00;;;16.75;100.00
11936;BME280;6027;48.576;9.180;2023-05-23T09:55:29;96991.81;;;16.75;100.00
11936;BME280;6027;48.576;9.180;2023-05-23T09:57:57;96992.88;;;16.74;100.00
11936;BME280;6027;48.576;9.180;2023-05-23T10:00:24;96998.47;;;16.72;100.00
11936;BME280;6027;48.576;9.180;2023-05-23T10:08:32;96995.19;;;16.70;100.00
11936;BME280;6027;48.576;9.180;2023-05-23T10:13:43;96999.81;;;16.81;100.00
11936;BME280;6027;48.576;9.180;2023-05-23T10:16:22;97002.88;;;16.85;100.00
11936;BME280;6027;48.576;9.180;2023-05-23T10:18:55;97000.13;;;16.67;100.00
11936;BME280;6027;48.576;9.180;2023-05-23T10:21:58;96993.16;;;16.59;100.00
11936;BME280;6027;48.576;9.180;2023-05-23T10:24:25;97002.41;;;16.63;100.00
11936;BME280;6027;48.576;9.180;2023-05-23T10:26:53;97006.84;;;16.76;100.00
11936;BME280;6027;48.576;9.180;2023-05-23T10:29:23;97009.06;;;16.79;100.00
11936;BME280;6027;48.576;9.180;2023-05-23T10:31:50;97005.31;;;16.86;100.00
11936;BME280;6027;48.576;9.180;2023-05-23T10:34:24;97006.03;;;17.00;100.00
11936;BME280;6027;48.576;9.180;2023-05-23T10:41:55;96995.31;;;17.00;100.00
11936;BME280;6027;48.576;9.180;2023-05-23T10:44:27;96991.91;;;16.93;100.00
11936;BME280;6027;48.576;9.180;2023-05-23T10:47:00;96989.97;;;17.00;100.00
11936;BME280;6027;48.576;9.180;2023-05-23T10:52:07;96990.97;;;17.24;100.00
11936;BME280;6027;48.576;9.180;2023-05-23T10:54:52;96998.72;;;17.32;100.00
11936;BME280;6027;48.576;9.180;2023-05-23T10:57:19;97002.19;;;17.33;100.00
11936;BME280;6027;48.576;9.180;2023-05-23T10:59:46;96993.50;;;17.37;100.00
11936;BME280;6027;48.576;9.180;2023-05-23T11:02:16;96991.44;;;17.39;100.00
11936;BME280;6027;48.576;9.180;2023-05-23T11:04:43;96996.28;;;17.49;100.00
11936;BME280;6027;48.576;9.180;2023-05-23T11:07:31;96995.00;;;17.51;100.00
11936;BME280;6027;48.576;9.180;2023-05-23T11:10:07;96998.28;;;17.53;100.00
11936;BME280;6027;48.576;9.180;2023-05-23T11:12:40;96997.75;;;17.70;100.00
11936;BME280;6027;48.576;9.180;2023-05-23T11:15:26;96994.38;;;17.74;100.00
11936;BME280;6027;48.576;9.180;2023-05-23T11:17:53;96990.75;;;17.69;100.00
11936;BME280;6027;48.576;9.180;2023-05-23T11:20:20;96994.69;;;17.66;100.00
11936;BME280;6027;48.576;9.180;2023-05-23T11:23:02;96992.50;;;17.75;100.00
11936;BME280;6027;48.576;9.180;2023-05-23T11:28:12;96993.31;;;17.75;100.00
11936;BME280;6027;48.576;9.180;2023-05-23T11:30:38;96992.13;;;17.89;100.00
11936;BME280;6027;48.576;9.180;2023-05-23T11:33:09;96993.31;;;17.93;100.00
11936;BME280;6027;48.576;9.180;2023-05-23T11:35:39;96993.44;;;17.99;100.00
11936;BME280;6027;48.576;9.180;2023-05-23T11:38:04;96990.47;;;18.07;100.00
11936;BME280;6027;48.576;9.180;2023-05-23T11:45:27;96979.41;;;18.15;100.00
11936;BME280;6027;48.576;9.180;2023-05-23T11:47:52;96984.31;;;18.18;100.00
11936;BME280;6027;48.576;9.180;2023-05-23T11:50:18;96986.78;;;18.19;100.00
11936;BME280;6027;48.576;9.180;2023-05-23T11:52:49;96983.06;;;18.20;98.18
11936;BME280;6027;48.576;9.180;2023-05-23T11:55:21;96985.06;;;18.25;99.69
11936;BME280;6027;48.576;9.180;2023-05-23T11:57:47;96984.34;;;18.29;100.00
11936;BME280;6027;48.576;9.180;2023-05-23T12:00:13;96977.28;;;18.35;94.59
11936;BME280;6027;48.576;9.180;2023-05-23T12:02:41;96985.78;;;18.32;100.00
11936;BME280;6027;48.576;9.180;2023-05-23T12:05:12;96983.91;;;18.33;96.64
11936;BME280;6027;48.576;9.180;2023-05-23T12:07:47;96987.84;;;18.30;100.00
11936;BME280;6027;48.576;9.180;2023-05-23T12:10:15;96981.00;;;18.34;96.84
11936;BME280;6027;48.576;9.180;2023-05-23T12:12:41;96982.41;;;18.37;97.44
11936;BME280;6027;48.576;9.180;2023-05-23T12:15:08;96979.66;;;18.43;94.94
11936;BME280;6027;48.576;9.180;2023-05-23T12:17:35;96974.66;;;18.47;92.29
11936;BME280;6027;48.576;9.180;2023-05-23T12:20:01;96977.19;;;18.42;89.64
11936;BME280;6027;48.576;9.180;2023-05-23T12:22:27;96976.00;;;18.38;89.33
11936;BME280;6027;48.576;9.180;2023-05-23T12:24:53;96978.53;;;18.33;90.74
11936;BME280;6027;48.576;9.180;2023-05-23T12:27:26;96961.19;;;18.35;88.77
11936;BME280;6027;48.576;9.180;2023-05-23T12:30:03;96976.22;;;18.36;89.24
11936;BME280;6027;48.576;9.180;2023-05-23T12:32:29;96965.72;;;18.35;83.38
11936;BME280;6027;48.576;9.180;2023-05-23T12:34:55;96971.00;;;18.41;84.82
11936;BME280;6027;48.576;9.180;2023-05-23T12:37:20;96966.34;;;18.48;85.65
11936;BME280;6027;48.576;9.180;2023-05-23T12:39:48;96965.22;;;18.56;85.29
11936;BME280;6027;48.576;9.180;2023-05-23T12:42:14;96967.66;;;18.57;88.19
11936;BME280;6027;48.576;9.180;2023-05-23T12:44:40;96978.63;;;18.56;90.10
11936;BME280;6027;48.576;9.180;2023-05-23T12:47:06;96963.44;;;18.50;89.80
11936;BME280;6027;48.576;9.180;2023-05-23T12:49:31;96976.25;;;18.48;86.68
11936;BME280;6027;48.576;9.180;2023-05-23T12:51:57;96974.38;;;18.48;84.80
11936;BME280;6027;48.576;9.180;2023-05-23T12:54:22;96967.97;;;18.49;83.91
11936;BME280;6027;48.576;9.180;2023-05-23T12:56:47;96969.56;;;18.69;86.46
11936;BME280;6027;48.576;9.180;2023-05-23T12:59:13;96965.28;;;18.79;86.88
11936;BME280;6027;48.576;9.180;2023-05-23T13:01:38;96965.97;;;18.63;89.88
11936;BME280;6027;48.576;9.180;2023-05-23T13:04:04;96960.13;;;18.66;95.85
11936;BME280;6027;48.576;9.180;2023-05-23T13:06:29;96963.53;;;18.85;95.59
11936;BME280;6027;48.576;9.180;2023-05-23T13:08:55;96964.47;;;18.90;82.11
11936;BME280;6027;48.576;9.180;2023-05-23T13:11:21;96969.00;;;18.90;89.39
11936;BME280;6027;48.576;9.180;2023-05-23T13:13:47;96967.72;;;18.92;85.16
11936;BME280;6027;48.576;9.180;2023-05-23T13:16:13;96962.81;;;18.89;83.29
11936;BME280;6027;48.576;9.180;2023-05-23T13:18:38;96963.88;;;18.77;81.57
11936;BME280;6027;48.576;9.180;2023-05-23T13:21:04;96958.97;;;18.74;82.82
11936;BME280;6027;48.576;9.180;2023-05-23T13:23:30;96967.03;;;18.97;87.00
11936;BME280;6027;48.576;9.180;2023-05-23T13:25:56;96958.53;;;19.00;86.62
11936;BME280;6027;48.576;9.180;2023-05-23T13:28:23;96959.56;;;19.11;90.21
11936;BME280;6027;48.576;9.180;2023-05-23T13:30:49;96957.00;;;19.16;80.49
11936;BME280;6027;48.576;9.180;2023-05-23T13:33:15;96959.56;;;19.22;78.61
11936;BME280;6027;48.576;9.180;2023-05-23T13:35:41;96948.38;;;19.14;78.77